createdAt,value
2023-03-25T00:01:26.353Z,99111.7
2023-03-25T00:03:32.691Z,99102.77
2023-03-25T00:05:39.745Z,99097
2023-03-25T00:07:46.658Z,99097.59
2023-03-25T00:09:52.841Z,99099.73
2023-03-25T00:11:59.201Z,99102.41
2023-03-25T00:14:05.846Z,99096.46
2023-03-25T00:16:12.297Z,99091.91
2023-03-25T00:18:18.811Z,99094.63
2023-03-25T00:20:25.340Z,99090.28
2023-03-25T00:22:32.296Z,99094.45
2023-03-25T00:24:39.257Z,99094.53
2023-03-25T00:26:45.896Z,99090.21
2023-03-25T00:28:52.547Z,99100.5
2023-03-25T00:30:58.881Z,99101.75
2023-03-25T00:33:05.778Z,99097.58
2023-03-25T00:35:12.039Z,99092.79
2023-03-25T00:37:18.352Z,99088.84
2023-03-25T00:39:25.458Z,99091.06
2023-03-25T00:41:32.200Z,99089.53
2023-03-25T00:43:38.290Z,99090.25
2023-03-25T00:45:45.280Z,99092.42
2023-03-25T00:47:52.393Z,99094.2
2023-03-25T00:49:58.714Z,99097.4
2023-03-25T00:52:05.183Z,99098.75
2023-03-25T00:54:11.918Z,99105.95
2023-03-25T00:56:18.623Z,99111.5
2023-03-25T00:58:25.838Z,99102.72
2023-03-25T01:00:32.917Z,99096.23
2023-03-25T01:02:40.605Z,99093.58
2023-03-25T01:04:47.183Z,99092.65
2023-03-25T01:06:54.062Z,99086.17
2023-03-25T01:09:01.175Z,99089.78
2023-03-25T01:11:07.719Z,99086.83
2023-03-25T01:13:14.500Z,99087.99
2023-03-25T01:15:21.783Z,99087.98
2023-03-25T01:17:28.601Z,99087.2
2023-03-25T01:19:35.889Z,99079.83
2023-03-25T01:21:43.214Z,99076.48
2023-03-25T01:23:49.655Z,99068.13
2023-03-25T01:25:57.318Z,99059.56
2023-03-25T01:28:04.217Z,99061.16
2023-03-25T01:30:10.637Z,99066.33
2023-03-25T01:32:17.433Z,99068.69
2023-03-25T01:34:24.183Z,99066.27
2023-03-25T01:36:31.174Z,99067.95
2023-03-25T01:38:38.515Z,99064.08
2023-03-25T01:40:45.716Z,99068.67
2023-03-25T01:42:53.317Z,99066.58
2023-03-25T01:45:00.563Z,99072.94
2023-03-25T01:47:07.099Z,99072.37
2023-03-25T01:49:14.081Z,99081.5
2023-03-25T01:51:21.209Z,99081.09
2023-03-25T01:53:28.057Z,99081.54
2023-03-25T01:55:34.999Z,99078.38
2023-03-25T01:57:41.290Z,99084.59
2023-03-25T01:59:48.009Z,99088.41
2023-03-25T02:01:55.648Z,99090.51
2023-03-25T02:04:02.686Z,99093.42
2023-03-25T02:06:10.153Z,99085.73
2023-03-25T02:08:17.114Z,99075.25
2023-03-25T02:10:24.289Z,99067.66
2023-03-25T02:12:30.685Z,99059.64
2023-03-25T02:14:37.224Z,99067.38
2023-03-25T02:16:43.961Z,99067.98
2023-03-25T02:18:50.901Z,99056.84
2023-03-25T02:20:57.403Z,99057.58
2023-03-25T02:23:03.704Z,99062.63
2023-03-25T02:25:10.213Z,99068.2
2023-03-25T02:27:16.825Z,99062.88
2023-03-25T02:29:23.152Z,99063.07
2023-03-25T02:31:29.601Z,99075
2023-03-25T02:33:35.943Z,99083.14
2023-03-25T02:35:42.482Z,99090
2023-03-25T02:37:49.249Z,99082.03
2023-03-25T02:39:55.545Z,99078.34
2023-03-25T02:42:02.113Z,99072.22
2023-03-25T02:44:08.296Z,99067.25
2023-03-25T02:46:15.002Z,99064.78
2023-03-25T02:48:21.299Z,99067.53
2023-03-25T02:50:28.671Z,99066.47
2023-03-25T02:52:35.355Z,99059.82
2023-03-25T02:54:42.494Z,99061.09
2023-03-25T02:56:49.691Z,99065.78
2023-03-25T02:58:56.460Z,99068.59
2023-03-25T03:01:03.053Z,99073.28
2023-03-25T03:03:10.208Z,99071.39
2023-03-25T03:05:17.147Z,99068.33
2023-03-25T03:07:23.172Z,99068.52
2023-03-25T03:09:29.627Z,99074.91
2023-03-25T03:11:36.087Z,99077.68
2023-03-25T03:13:42.481Z,99082.89
2023-03-25T03:15:49.172Z,99085.59
2023-03-25T03:17:56.631Z,99090.37
2023-03-25T03:20:03.715Z,99085
2023-03-25T03:22:10.384Z,99087.7
2023-03-25T03:24:16.739Z,99085.67
2023-03-25T03:26:23.399Z,99088.7
2023-03-25T03:28:30.335Z,99089.62
2023-03-25T03:30:36.686Z,99087.23
2023-03-25T03:32:43.639Z,99086.49
2023-03-25T03:34:50.542Z,99075.83
2023-03-25T03:36:57.661Z,99080.42
2023-03-25T03:39:03.936Z,99078.89
2023-03-25T03:41:10.194Z,99077.07
2023-03-25T03:43:16.719Z,99072.58
2023-03-25T03:45:23.406Z,99069.95
2023-03-25T03:47:29.917Z,99079.79
2023-03-25T03:49:36.105Z,99085.19
2023-03-25T03:51:42.478Z,99083.86
2023-03-25T03:53:49.356Z,99080.73
2023-03-25T03:55:55.636Z,99082.3
2023-03-25T03:58:01.780Z,99090.09
2023-03-25T04:00:08.406Z,99092.86
2023-03-25T04:02:14.822Z,99095.8
2023-03-25T04:04:21.790Z,99098.83
2023-03-25T04:06:28.425Z,99094.55
2023-03-25T04:08:34.688Z,99095.13
2023-03-25T04:10:40.810Z,99095.3
2023-03-25T04:12:47.249Z,99096.71
2023-03-25T04:14:53.722Z,99097.92
2023-03-25T04:17:00.209Z,99100.59
2023-03-25T04:19:06.625Z,99107.15
2023-03-25T04:21:13.279Z,99110.52
2023-03-25T04:23:20.461Z,99114.22
2023-03-25T04:25:27.030Z,99114.58
2023-03-25T04:27:33.627Z,99113.98
2023-03-25T04:29:40.589Z,99110.96
2023-03-25T04:31:47.688Z,99110.23
2023-03-25T04:33:54.852Z,99111.39
2023-03-25T04:36:02.482Z,99113.85
2023-03-25T04:38:09.338Z,99120.28
2023-03-25T04:40:16.579Z,99117.01
2023-03-25T04:42:23.159Z,99112.21
2023-03-25T04:44:29.471Z,99108.62
2023-03-25T04:46:35.748Z,99105.91
2023-03-25T04:48:42.308Z,99097.39
2023-03-25T04:50:48.563Z,99100.36
2023-03-25T04:52:55.143Z,99105.19
2023-03-25T04:55:01.964Z,99104.69
2023-03-25T04:57:08.395Z,99106.98
2023-03-25T04:59:14.611Z,99114.8
2023-03-25T05:01:20.960Z,99108.95
2023-03-25T05:03:27.470Z,99114.8
2023-03-25T05:05:33.416Z,99119.3
2023-03-25T05:07:39.782Z,99123.58
2023-03-25T05:09:46.220Z,99125.72
2023-03-25T05:11:52.312Z,99126.77
2023-03-25T05:13:59.174Z,99126.08
2023-03-25T05:16:05.634Z,99123.62
2023-03-25T05:18:12.001Z,99121.33
2023-03-25T05:20:18.146Z,99123.13
2023-03-25T05:22:24.756Z,99124.67
2023-03-25T05:24:31.143Z,99125.07
2023-03-25T05:26:37.500Z,99126.04
2023-03-25T05:28:44.658Z,99134.34
2023-03-25T05:30:51.009Z,99131.59
2023-03-25T05:32:58.812Z,99128.78
2023-03-25T05:35:05.396Z,99131.91
2023-03-25T05:37:12.247Z,99136.36
2023-03-25T05:39:18.635Z,99135.62
2023-03-25T05:41:25.024Z,99139
2023-03-25T05:43:31.743Z,99139.63
2023-03-25T05:45:38.071Z,99137.3
2023-03-25T05:47:44.852Z,99139.52
2023-03-25T05:49:51.357Z,99140.31
2023-03-25T05:51:57.549Z,99139.32
2023-03-25T05:54:03.860Z,99133.88
2023-03-25T05:56:10.291Z,99133.77
2023-03-25T05:58:17.218Z,99130.67
2023-03-25T06:00:25.980Z,99135.25
2023-03-25T06:02:32.884Z,99134.66
2023-03-25T06:04:39.359Z,99137.48
2023-03-25T06:06:45.704Z,99139.47
2023-03-25T06:08:52.982Z,99138.72
2023-03-25T06:11:00.019Z,99137.74
2023-03-25T06:13:06.565Z,99137.89
2023-03-25T06:15:13.901Z,99140.48
2023-03-25T06:17:20.570Z,99142.28
2023-03-25T06:19:27.409Z,99138.44
2023-03-25T06:21:34.101Z,99137.2
2023-03-25T06:23:40.201Z,99136.23
2023-03-25T06:25:46.842Z,99136.64
2023-03-25T06:27:54.026Z,99140.57
2023-03-25T06:30:00.425Z,99139.5
2023-03-25T06:32:07.302Z,99144.25
2023-03-25T06:34:13.927Z,99142.53
2023-03-25T06:36:21.109Z,99144.78
2023-03-25T06:38:27.764Z,99148.83
2023-03-25T06:40:34.712Z,99149.8
2023-03-25T06:42:41.185Z,99143.34
2023-03-25T06:44:47.603Z,99149.81
2023-03-25T06:46:54.554Z,99147.16
2023-03-25T06:49:01.253Z,99150.44
2023-03-25T06:51:07.920Z,99151.28
2023-03-25T06:53:15.190Z,99150.68
2023-03-25T06:55:22.985Z,99158.56
2023-03-25T06:57:30.711Z,99155.2
2023-03-25T06:59:38.324Z,99149.98
2023-03-25T07:01:46.482Z,99150.27
2023-03-25T07:03:54.460Z,99152.8
2023-03-25T07:06:02.033Z,99152.69
2023-03-25T07:08:09.807Z,99153.92
2023-03-25T07:10:18.357Z,99152.02
2023-03-25T07:12:27.712Z,99150.17
2023-03-25T07:14:35.081Z,99151.67
2023-03-25T07:16:43.023Z,99150.02
2023-03-25T07:18:50.381Z,99149.73
2023-03-25T07:20:56.659Z,99144.74
2023-03-25T07:23:03.467Z,99142.72
2023-03-25T07:25:11.355Z,99138.7
2023-03-25T07:27:20.118Z,99138.81
2023-03-25T07:29:27.050Z,99138.45
2023-03-25T07:31:34.425Z,99137.47
2023-03-25T07:33:42.263Z,99138.67
2023-03-25T07:35:50.162Z,99132.33
2023-03-25T07:37:58.036Z,99129.22
2023-03-25T07:40:04.825Z,99116.53
2023-03-25T07:42:12.312Z,99110.23
2023-03-25T07:44:19.944Z,99113.39
2023-03-25T07:46:26.597Z,99110.55
2023-03-25T07:48:34.318Z,99111.43
2023-03-25T07:50:41.567Z,99104.91
2023-03-25T07:52:48.650Z,99108.84
2023-03-25T07:54:55.638Z,99107.16
2023-03-25T07:57:03.848Z,99110.18
2023-03-25T07:59:10.704Z,99106.48
2023-03-25T08:01:17.487Z,99105.02
2023-03-25T08:03:24.370Z,99102.7
2023-03-25T08:05:31.116Z,99100.14
2023-03-25T08:07:37.574Z,99101.02
2023-03-25T08:09:44.293Z,99108.09
2023-03-25T08:11:50.847Z,99109.05
2023-03-25T08:13:57.376Z,99106.46
2023-03-25T08:16:04.824Z,99106.27
2023-03-25T08:18:12.120Z,99102.13
2023-03-25T08:20:18.607Z,99101.76
2023-03-25T08:22:26.378Z,99097.88
2023-03-25T08:24:32.924Z,99088.81
2023-03-25T08:26:39.341Z,99094.98
2023-03-25T08:28:46.757Z,99096.64
2023-03-25T08:30:55.429Z,99095.94
2023-03-25T08:33:03.923Z,99100.7
2023-03-25T08:35:11.733Z,99097.91
2023-03-25T08:37:20.270Z,99098.06
2023-03-25T08:39:27.700Z,99105.77
2023-03-25T08:41:35.750Z,99104.18
2023-03-25T08:43:46.585Z,99101.52
2023-03-25T08:45:54.527Z,99096.64
2023-03-25T08:48:02.245Z,99094.94
2023-03-25T08:50:09.514Z,99096.73
2023-03-25T08:52:17.597Z,99099.03
2023-03-25T08:54:24.671Z,99098.88
2023-03-25T08:56:31.990Z,99093.95
2023-03-25T08:58:38.974Z,99091.22
2023-03-25T09:00:45.333Z,99094.03
2023-03-25T09:02:52.809Z,99087.92
2023-03-25T09:05:00.927Z,99088.21
2023-03-25T09:07:13.605Z,99083.47
2023-03-25T09:09:23.375Z,99083.79
2023-03-25T09:11:38.717Z,99078.5
2023-03-25T09:13:46.555Z,99085.14
2023-03-25T09:15:55.180Z,99079.44
2023-03-25T09:18:04.007Z,99079.63
2023-03-25T09:20:13.480Z,99078.16
2023-03-25T09:22:20.748Z,99077.45
2023-03-25T09:24:28.264Z,99077.7
2023-03-25T09:26:35.585Z,99075.93
2023-03-25T09:28:42.147Z,99072.61
2023-03-25T09:30:49.198Z,99073.5
2023-03-25T09:32:55.983Z,99069.91
2023-03-25T09:35:03.343Z,99073.14
2023-03-25T09:37:11.173Z,99073.98
2023-03-25T09:39:19.110Z,99073.55
2023-03-25T09:41:26.733Z,99069.77
2023-03-25T09:43:36.822Z,99066.43
2023-03-25T09:45:44.181Z,99064.95
2023-03-25T09:47:54.713Z,99067.23
2023-03-25T09:50:02.896Z,99065.8
2023-03-25T09:52:09.641Z,99061.16
2023-03-25T09:54:15.817Z,99063.58
2023-03-25T09:56:23.795Z,99061.8
2023-03-25T09:58:30.623Z,99058.36
2023-03-25T10:00:37.191Z,99056.3
2023-03-25T10:02:44.352Z,99054.94
2023-03-25T10:04:51.593Z,99054.3
2023-03-25T10:06:58.538Z,99057.14
2023-03-25T10:09:05.570Z,99056.88
2023-03-25T10:11:12.399Z,99059.05
2023-03-25T10:13:21.443Z,99058.09
2023-03-25T10:15:28.668Z,99057.92
2023-03-25T10:17:35.339Z,99059.23
2023-03-25T10:19:43.198Z,99061.19
2023-03-25T10:21:51.480Z,99053.73
2023-03-25T10:23:58.135Z,99052.59
2023-03-25T10:26:06.703Z,99053.08
2023-03-25T10:28:15.585Z,99045.02
2023-03-25T10:30:25.367Z,99042.18
2023-03-25T10:32:33.450Z,99045.78
2023-03-25T10:34:40.860Z,99043.2
2023-03-25T10:36:47.287Z,99037.98
2023-03-25T10:38:54.430Z,99039.56
2023-03-25T10:41:02.145Z,99039.4
2023-03-25T10:43:10.840Z,99042.4
2023-03-25T10:45:18.377Z,99035.69
2023-03-25T10:47:24.905Z,99032.42
2023-03-25T10:49:31.753Z,99025.77
2023-03-25T10:51:39.330Z,99025.13
2023-03-25T10:53:46.412Z,99025.95
2023-03-25T10:55:54.468Z,99023.56
2023-03-25T10:58:01.954Z,99013.98
2023-03-25T11:00:10.345Z,99011.27
2023-03-25T11:02:17.496Z,99011.59
2023-03-25T11:04:24.266Z,99001.39
2023-03-25T11:06:31.088Z,99001.64
2023-03-25T11:08:37.730Z,99005.21
2023-03-25T11:10:44.439Z,99004.6
2023-03-25T11:12:51.871Z,98998.7
2023-03-25T11:15:00.284Z,99000.48
2023-03-25T11:17:09.753Z,98993.56
2023-03-25T11:19:17.171Z,98991.05
2023-03-25T11:21:25.359Z,98986.5
2023-03-25T11:23:33.649Z,98973.88
2023-03-25T11:25:41.219Z,98971.64
2023-03-25T11:27:48.167Z,98965.5
2023-03-25T11:29:54.711Z,98966.64
2023-03-25T11:32:01.538Z,98962.2
2023-03-25T11:34:10.008Z,98952.78
2023-03-25T11:36:17.500Z,98959.2
2023-03-25T11:38:26.122Z,98961.45
2023-03-25T11:40:33.161Z,98953.95
2023-03-25T11:42:41.460Z,98948.74
2023-03-25T11:44:48.233Z,98952
2023-03-25T11:46:54.624Z,98947.95
2023-03-25T11:49:02.744Z,98949.34
2023-03-25T11:51:11.267Z,98944.28
2023-03-25T11:53:17.660Z,98942.45
2023-03-25T11:55:24.707Z,98936.55
2023-03-25T11:57:34.417Z,98938.57
2023-03-25T11:59:43.222Z,98939.17
2023-03-25T12:01:51.552Z,98931.95
2023-03-25T12:03:58.934Z,98928.27
2023-03-25T12:06:06.329Z,98927.06
2023-03-25T12:08:15.046Z,98925.5
2023-03-25T12:10:22.596Z,98927.3
2023-03-25T12:12:31.393Z,98929.5
2023-03-25T12:14:39.553Z,98941.25
2023-03-25T12:16:48.058Z,98945.38
2023-03-25T12:18:56.426Z,98953.17
2023-03-25T12:21:04.783Z,98959.3
2023-03-25T12:23:12.365Z,98958.3
2023-03-25T12:25:21.384Z,98952.67
2023-03-25T12:27:28.839Z,98964.72
2023-03-25T12:29:36.855Z,98951.79
2023-03-25T12:31:44.394Z,98956.92
2023-03-25T12:33:52.781Z,98952.56
2023-03-25T12:36:00.736Z,98960.38
2023-03-25T12:38:10.550Z,98965.73
2023-03-25T12:40:22.084Z,98959.28
2023-03-25T12:42:29.273Z,98958.12
2023-03-25T12:44:36.571Z,98962.73
2023-03-25T12:46:43.358Z,98960.91
2023-03-25T12:48:51.230Z,98956.99
2023-03-25T12:50:59.792Z,98960.06
2023-03-25T12:53:08.389Z,98956.19
2023-03-25T12:55:17.677Z,98950.6
2023-03-25T12:57:26.508Z,98954.86
2023-03-25T12:59:35.679Z,98950.66
2023-03-25T13:01:46.245Z,98954.19
2023-03-25T13:03:57.155Z,98952.77
2023-03-25T13:06:05.416Z,98944.91
2023-03-25T13:08:13.509Z,98935.55
2023-03-25T13:10:20.009Z,98935.26
2023-03-25T13:12:27.314Z,98935.78
2023-03-25T13:14:35.723Z,98939.81
2023-03-25T13:16:43.118Z,98943.84
2023-03-25T13:18:51.357Z,98934.35
2023-03-25T13:21:00.027Z,98943.32
2023-03-25T13:23:18.450Z,98935.47
2023-03-25T13:25:26.567Z,98939.88
2023-03-25T13:27:34.148Z,98942.92
2023-03-25T13:29:42.204Z,98939.84
2023-03-25T13:31:50.383Z,98936.23
2023-03-25T13:33:59.682Z,98925.66
2023-03-25T13:36:08.698Z,98920.77
2023-03-25T13:38:16.446Z,98912.78
2023-03-25T13:40:25.208Z,98902.2
2023-03-25T13:42:32.937Z,98892.43
2023-03-25T13:44:40.823Z,98894.52
2023-03-25T13:46:49.419Z,98905
2023-03-25T13:48:57.742Z,98904.98
2023-03-25T13:51:05.851Z,98898.17
2023-03-25T13:53:13.931Z,98892.36
2023-03-25T13:55:23.058Z,98883.91
2023-03-25T13:57:30.344Z,98881.88
2023-03-25T13:59:37.303Z,98886.19
2023-03-25T14:01:47.366Z,98883.13
2023-03-25T14:03:54.816Z,98881.7
2023-03-25T14:06:03.906Z,98888.98
2023-03-25T14:08:12.073Z,98886.17
2023-03-25T14:10:20.609Z,98885.52
2023-03-25T14:12:28.795Z,98887.64
2023-03-25T14:14:36.778Z,98884.34
2023-03-25T14:16:43.805Z,98887.36
2023-03-25T14:18:52.011Z,98893.69
2023-03-25T14:21:01.603Z,98893.92
2023-03-25T14:23:09.810Z,98897.01
2023-03-25T14:25:17.369Z,98897.44
2023-03-25T14:27:25.335Z,98902.38
2023-03-25T14:29:33.854Z,98898.7
2023-03-25T14:31:42.060Z,98900.55
2023-03-25T14:33:52.893Z,98895.55
2023-03-25T14:36:00.549Z,98905.98
2023-03-25T14:38:08.600Z,98897.83
2023-03-25T14:40:16.371Z,98900.98
2023-03-25T14:42:23.892Z,98901.02
2023-03-25T14:44:30.962Z,98905.66
2023-03-25T14:46:38.771Z,98906.78
2023-03-25T14:48:47.351Z,98909.75
2023-03-25T14:50:55.823Z,98906.63
2023-03-25T14:53:03.927Z,98907.67
2023-03-25T14:55:11.264Z,98908.85
2023-03-25T14:57:18.926Z,98911.47
2023-03-25T14:59:27.263Z,98913.03
2023-03-25T15:01:34.958Z,98914.67
2023-03-25T15:03:43.158Z,98919.03
2023-03-25T15:05:51.742Z,98927.72
2023-03-25T15:08:02.210Z,98964.92
2023-03-25T15:10:10.127Z,98969.22
2023-03-25T15:12:18.466Z,98972.02
2023-03-25T15:14:26.206Z,98985.31
2023-03-25T15:16:34.396Z,99003.08
2023-03-25T15:18:43.527Z,98999.98
2023-03-25T15:20:51.917Z,98998.5
2023-03-25T15:23:00.098Z,99000.27
2023-03-25T15:25:10.198Z,99011.39
2023-03-25T15:27:18.974Z,99005.69
2023-03-25T15:29:27.637Z,99018.17
2023-03-25T15:31:38.099Z,99012.74
2023-03-25T15:33:46.959Z,99011.14
2023-03-25T15:35:55.023Z,99009.95
2023-03-25T15:38:04.476Z,99004.58
2023-03-25T15:40:13.273Z,98998.82
2023-03-25T15:42:23.152Z,98984.18
2023-03-25T15:44:30.823Z,98984.67
2023-03-25T15:46:38.112Z,98984.97
2023-03-25T15:48:46.329Z,98990.67
2023-03-25T15:50:55.038Z,98996.41
2023-03-25T15:53:03.773Z,98993.05
2023-03-25T15:55:11.399Z,98993.27
2023-03-25T15:57:21.634Z,98987.15
2023-03-25T15:59:30.139Z,98979.93
2023-03-25T16:01:38.787Z,98968.53
2023-03-25T16:03:46.729Z,98966.67
2023-03-25T16:05:54.959Z,98968.86
2023-03-25T16:08:03.145Z,98968.2
2023-03-25T16:10:11.596Z,98969.08
2023-03-25T16:12:19.984Z,98968.72
2023-03-25T16:14:28.110Z,98968.8
2023-03-25T16:16:37.721Z,98970.98
2023-03-25T16:18:46.049Z,98970.09
2023-03-25T16:20:54.990Z,98974.61
2023-03-25T16:23:04.515Z,98975.01
2023-03-25T16:25:14.493Z,98975.09
2023-03-25T16:27:26.632Z,98982.66
2023-03-25T16:29:34.878Z,98979.03
2023-03-25T16:31:42.932Z,98984.98
2023-03-25T16:33:51.496Z,98988.94
2023-03-25T16:36:00.909Z,98990.77
2023-03-25T16:38:09.693Z,99000.54
2023-03-25T16:40:17.686Z,99007.33
2023-03-25T16:42:26.216Z,99011.77
2023-03-25T16:44:34.572Z,99015.04
2023-03-25T16:46:42.958Z,99014.88
2023-03-25T16:48:49.972Z,99018.09
2023-03-25T16:50:56.254Z,99015.88
2023-03-25T16:53:04.252Z,99013.9
2023-03-25T16:55:11.479Z,99015.39
2023-03-25T16:57:18.709Z,99018.97
2023-03-25T16:59:25.946Z,99023.56
2023-03-25T17:01:32.542Z,99022.8
2023-03-25T17:03:40.937Z,99024.38
2023-03-25T17:05:51.675Z,99024.82
2023-03-25T17:07:59.772Z,99023.25
2023-03-25T17:10:09.222Z,99019.4
2023-03-25T17:12:17.300Z,99020
2023-03-25T17:14:26.029Z,99020.55
2023-03-25T17:16:36.277Z,99020.2
2023-03-25T17:18:45.653Z,99020.91
2023-03-25T17:20:57.800Z,99022.12
2023-03-25T17:23:07.228Z,99015.31
2023-03-25T17:25:16.943Z,99018.36
2023-03-25T17:27:25.528Z,99017.14
2023-03-25T17:29:37.847Z,99021.1
2023-03-25T17:31:50.953Z,99022.81
2023-03-25T17:33:59.414Z,99021.86
2023-03-25T17:36:14.928Z,99020.93
2023-03-25T17:38:24.696Z,99024.69
2023-03-25T17:40:36.242Z,99029.75
2023-03-25T17:42:46.948Z,99030.49
2023-03-25T17:44:56.420Z,99034.37
2023-03-25T17:47:19.622Z,99035.2
2023-03-25T17:49:29.946Z,99026.51
2023-03-25T17:51:38.989Z,99031.72
2023-03-25T17:53:49.867Z,99032.02
2023-03-25T17:56:00.660Z,99029.73
2023-03-25T17:58:10.112Z,99030.89
2023-03-25T18:00:27.722Z,99037.91
2023-03-25T18:02:37.560Z,99035.36
2023-03-25T18:04:48.236Z,99039.14
2023-03-25T18:06:58.211Z,99039.52
2023-03-25T18:09:07.548Z,99040.53
2023-03-25T18:11:16.211Z,99040.63
2023-03-25T18:13:27.566Z,99031.16
2023-03-25T18:15:40.139Z,99029.93
2023-03-25T18:17:52.834Z,99020.43
2023-03-25T18:20:04.178Z,99025.91
2023-03-25T18:22:22.083Z,99024.33
2023-03-25T18:24:30.130Z,99029.16
2023-03-25T18:26:39.700Z,99027.05
2023-03-25T18:28:52.046Z,99028.96
2023-03-25T18:31:01.119Z,99031.74
2023-03-25T18:33:09.899Z,99035.55
2023-03-25T18:35:20.589Z,99036.15
2023-03-25T18:37:30.359Z,99034.64
2023-03-25T18:39:39.386Z,99033.39
2023-03-25T18:41:48.620Z,99036.8
2023-03-25T18:43:58.356Z,99036.69
2023-03-25T18:46:07.895Z,99035.58
2023-03-25T18:48:17.741Z,99039.45
2023-03-25T18:50:30.029Z,99041.32
2023-03-25T18:52:50.613Z,99042.81
2023-03-25T18:55:02.340Z,99043.51
2023-03-25T18:57:12.530Z,99044.92
2023-03-25T18:59:28.438Z,99042.98
2023-03-25T19:01:40.033Z,99041.94
2023-03-25T19:03:51.943Z,99041.58
2023-03-25T19:06:02.873Z,99046.19
2023-03-25T19:08:16.199Z,99050.72
2023-03-25T19:10:25.620Z,99051.66
2023-03-25T19:12:39.541Z,99056.97
2023-03-25T19:15:04.065Z,99056.25
2023-03-25T19:17:21.480Z,99056.41
2023-03-25T19:19:32.884Z,99056.64
2023-03-25T19:21:43.669Z,99060.41
2023-03-25T19:23:53.713Z,99049.33
2023-03-25T19:26:03.808Z,99048.55
2023-03-25T19:28:14.785Z,99044.32
2023-03-25T19:30:30.258Z,99045.74
2023-03-25T19:32:48.260Z,99047.95
2023-03-25T19:35:00.362Z,99047.11
2023-03-25T19:37:15.510Z,99050.49
2023-03-25T19:39:29.035Z,99040.69
2023-03-25T19:41:38.035Z,99036.7
2023-03-25T19:43:49.202Z,99044.85
2023-03-25T19:46:00.123Z,99043.14
2023-03-25T19:48:10.393Z,99041.05
2023-03-25T19:50:19.808Z,99042.8
2023-03-25T19:52:35.811Z,99045.36
2023-03-25T19:54:48.212Z,99045.77
2023-03-25T19:56:59.393Z,99043.92
2023-03-25T19:59:09.945Z,99043.69
2023-03-25T20:01:26.340Z,99042.2
2023-03-25T20:03:38.298Z,99043.59
2023-03-25T20:05:50.624Z,99039.19
2023-03-25T20:08:04.117Z,99036.59
2023-03-25T20:10:28.873Z,99034.22
2023-03-25T20:12:44.724Z,99038.69
2023-03-25T20:14:58.508Z,99038.85
2023-03-25T20:17:09.291Z,99038.66
2023-03-25T20:19:27.268Z,99039.8
2023-03-25T20:21:36.453Z,99039.26
2023-03-25T20:23:47.215Z,99038.98
2023-03-25T20:25:58.123Z,99037.9
2023-03-25T20:28:11.063Z,99040.23
2023-03-25T20:30:26.104Z,99042.27
2023-03-25T20:32:46.467Z,99041.8
2023-03-25T20:35:01.180Z,99039.85
2023-03-25T20:37:11.483Z,99043.78
2023-03-25T20:39:22.481Z,99036.81
2023-03-25T20:41:35.823Z,99031.07
2023-03-25T20:43:50.105Z,99030.33
2023-03-25T20:46:02.164Z,99035.64
2023-03-25T20:48:15.885Z,99031.88
2023-03-25T20:50:38.820Z,99034.94
2023-03-25T20:52:50.058Z,99036.14
2023-03-25T20:55:03.215Z,99033.28
2023-03-25T20:57:11.980Z,99032.58
2023-03-25T20:59:21.079Z,99034.23
2023-03-25T21:01:31.180Z,99037.2
2023-03-25T21:03:42.187Z,99035.19
2023-03-25T21:05:56.191Z,99036.66
2023-03-25T21:08:23.618Z,99030.39
2023-03-25T21:10:31.696Z,99035
2023-03-25T21:12:45.770Z,99037.51
2023-03-25T21:14:54.627Z,99039.06
2023-03-25T21:17:04.167Z,99041.45
2023-03-25T21:19:12.326Z,99041.19
2023-03-25T21:21:23.952Z,99041.47
2023-03-25T21:23:33.086Z,99037.17
2023-03-25T21:25:41.845Z,99032.67
2023-03-25T21:27:51.752Z,99027.06
2023-03-25T21:30:02.631Z,99026.45
2023-03-25T21:32:11.291Z,99031.03
2023-03-25T21:34:19.101Z,99033.02
2023-03-25T21:36:27.710Z,99029.55
2023-03-25T21:38:36.674Z,99032.7
2023-03-25T21:40:44.266Z,99028.82
2023-03-25T21:42:52.134Z,99027.34
2023-03-25T21:44:58.741Z,99025.86
2023-03-25T21:47:07.288Z,99028.53
2023-03-25T21:49:20.036Z,99023.63
2023-03-25T21:51:29.994Z,99027.5
2023-03-25T21:53:39.301Z,99024.83
2023-03-25T21:55:47.786Z,99024.6
2023-03-25T21:57:56.745Z,99021.5
2023-03-25T22:00:06.506Z,99025.36
2023-03-25T22:02:14.115Z,99025.67
2023-03-25T22:04:21.574Z,99027.48
2023-03-25T22:06:29.048Z,99032
2023-03-25T22:08:35.714Z,99025.53
2023-03-25T22:10:43.493Z,99024.28
2023-03-25T22:12:51.440Z,99023.64
2023-03-25T22:14:59.363Z,99022.34
2023-03-25T22:17:06.712Z,99024.59
2023-03-25T22:19:13.888Z,99025.17
2023-03-25T22:21:21.010Z,99022.73
2023-03-25T22:23:28.259Z,99024.61
2023-03-25T22:25:35.746Z,99022.2
2023-03-25T22:27:42.454Z,99022.69
2023-03-25T22:29:49.309Z,99021.05
2023-03-25T22:31:56.910Z,99018.03
2023-03-25T22:34:04.706Z,99015.97
2023-03-25T22:36:12.203Z,99018.16
2023-03-25T22:38:19.370Z,99017.39
2023-03-25T22:40:25.834Z,99016.72
2023-03-25T22:42:35.486Z,99019.75
2023-03-25T22:44:42.062Z,99018.03
2023-03-25T22:46:49.208Z,99015.55
2023-03-25T22:48:56.969Z,99013.41
2023-03-25T22:51:04.709Z,99014.13
2023-03-25T22:53:11.480Z,99011.03
2023-03-25T22:55:18.601Z,99016.52
2023-03-25T22:57:26.403Z,99021.67
2023-03-25T22:59:34.080Z,99023.14
2023-03-25T23:01:41.707Z,99019.44
2023-03-25T23:03:50.220Z,99027.33
2023-03-25T23:05:58.053Z,99026
2023-03-25T23:08:05.481Z,99027.47
2023-03-25T23:10:12.822Z,99022.14
2023-03-25T23:12:19.927Z,99021.59
2023-03-25T23:14:28.295Z,99015.44
2023-03-25T23:16:35.909Z,99010.13
2023-03-25T23:18:43.503Z,99014.91
2023-03-25T23:20:52.997Z,99015.81
2023-03-25T23:23:00.344Z,99012.63
2023-03-25T23:25:07.585Z,99009.43
2023-03-25T23:27:14.337Z,99007.66
2023-03-25T23:29:20.980Z,99009.39
2023-03-25T23:31:27.454Z,99006.77
2023-03-25T23:33:34.468Z,99005.47
2023-03-25T23:35:40.989Z,99007.36
2023-03-25T23:37:48.484Z,99006.8
2023-03-25T23:39:55.071Z,99005.93
2023-03-25T23:42:02.916Z,99006.75
2023-03-25T23:44:09.215Z,99010.29
2023-03-25T23:46:16.039Z,99007.63
2023-03-25T23:48:22.669Z,99011.41
2023-03-25T23:50:30.115Z,99008.48
2023-03-25T23:52:37.349Z,99012.38
2023-03-25T23:54:44.937Z,99015.2
2023-03-25T23:56:51.928Z,99017.52
2023-03-25T23:58:59.178Z,99010.82
